Autumn — V7QA6 — position and weather

sailwx.info

Track history (hours):
 
Tides and Currents Weather Stations Pressure Air Temp Water Temp Dewpoint Dewpoint Depression Visibility Wind Speed Wind Dir Waves Ship Positions

Autumn

Last reported at 2015-Aug-02 07:24 UTC. Time now 2015-Aug-02 10:25 UTC.
Position N 52°26' W 005°24'.

Length 129 m; draft 6 m.

Type: Tanker. MMSI: 538003323.

Date/timePositionNaut miles runAvg speedWind from/ knotsBaromVisibWave heightAir tempDewpointWater temp
2015-Aug-02 07:24N 52°26' W 005°24'2115.8
2015-Aug-02 06:04N 52°07' W 005°37'9911.1
2015-Aug-01 21:08N 51°22' W 003°13'6 6.4
2015-Aug-01 20:17N 51°27' W 003°10'0 0.0
2015-Jul-31 18:34N 51°27' W 003°09'2 2.0
2015-Jul-31 17:33N 51°26' W 003°09'9111.3
2015-Jul-31 09:33N 50°43' W 005°17'1312.8
2015-Jul-31 08:33N 50°35' W 005°32'164 9.5
2015-Jul-30 15:18N 50°19' W 001°15'1715.9
2015-Jul-30 14:12N 50°22' W 000°48'4015.3
2015-Jul-30 11:34N 50°34' E 000°13'1414.0
2015-Jul-30 10:33N 50°38' E 000°34'1313.2
2015-Jul-30 09:33N 50°45' E 000°51'1413.3
2015-Jul-30 08:31N 50°54' E 001°07'1414.5
2015-Jul-30 07:34N 51°03' E 001°24'1716.6
2015-Jul-30 06:34N 51°13' E 001°45'1615.8
2015-Jul-30 05:34N 51°27' E 001°58'1414.2
2015-Jul-30 04:33N 51°38' E 002°13'27411.9
2015-Jul-29 05:33N 55°39' E 005°55'19612.1
2015-Jul-28 13:25N 57°58' E 010°06'1113.1
2015-Jul-28 12:34N 58°03' E 010°26'1313.1
2015-Jul-28 11:33N 58°09' E 010°48'1312.7
2015-Jul-28 10:34N 58°14' E 011°10'1111.3
2015-Jul-28 09:33N 58°21' E 011°25'0 0.3
2015-Jul-28 08:28N 58°21' E 011°26'0 0.0
2015-Jul-28 07:28N 58°21' E 011°26'0 0.0
2015-Jul-28 06:31N 58°21' E 011°26'0 0.0
2015-Jul-28 05:28N 58°21' E 011°26'0 0.0
2015-Jul-28 04:31N 58°21' E 011°26'0 0.0
2015-Jul-28 03:31N 58°21' E 011°26'0 0.0
2015-Jul-28 02:34N 58°21' E 011°26'0 0.0
2015-Jul-28 01:25N 58°21' E 011°26'0 0.0
2015-Jul-28 00:31N 58°21' E 011°26'0 0.0
2015-Jul-27 23:34N 58°21' E 011°26'0 0.0
2015-Jul-27 22:31N 58°21' E 011°26'0 0.0
2015-Jul-27 21:34N 58°21' E 011°26'0 0.0
2015-Jul-27 20:34N 58°21' E 011°26'0 0.0
2015-Jul-27 19:31N 58°21' E 011°26'0 0.0
2015-Jul-27 18:31N 58°21' E 011°26'0 0.0
2015-Jul-27 17:34N 58°21' E 011°26'0 0.0
2015-Jul-27 16:34N 58°21' E 011°26'0 0.0
2015-Jul-27 15:31N 58°21' E 011°26'0 0.0
2015-Jul-27 14:25N 58°21' E 011°26'0 0.0
2015-Jul-27 13:25N 58°21' E 011°26'0 0.0
2015-Jul-27 12:31N 58°21' E 011°26'0 0.0
2015-Jul-27 11:34N 58°21' E 011°26'1 0.6
2015-Jul-27 10:34N 58°21' E 011°25'5 4.8
2015-Jul-27 09:34N 58°18' E 011°19'7 6.8
2015-Jul-27 08:34N 58°12' E 011°13'1 0.6
2015-Jul-27 07:32N 58°11' E 011°13'0 0.0
2015-Jul-27 06:32N 58°11' E 011°13'0 0.0
2015-Jul-27 05:32N 58°11' E 011°13'0 0.0
2015-Jul-27 04:32N 58°11' E 011°13'0 0.0
2015-Jul-27 03:29N 58°11' E 011°13'0 0.0
2015-Jul-27 02:32N 58°11' E 011°13'0 0.1
2015-Jul-27 01:23N 58°11' E 011°13'0 0.1
2015-Jul-27 00:32N 58°11' E 011°13'0 0.2
2015-Jul-26 23:29N 58°11' E 011°12'0 0.0
2015-Jul-26 22:32N 58°11' E 011°12'0 0.0
2015-Jul-26 21:32N 58°11' E 011°12'0 0.0
2015-Jul-26 20:29N 58°11' E 011°12'0 0.0
2015-Jul-26 19:32N 58°11' E 011°12'0 0.1
2015-Jul-26 18:32N 58°11' E 011°12'0 0.1
2015-Jul-26 17:32N 58°11' E 011°12'0 0.0
2015-Jul-26 16:32N 58°11' E 011°12'0 0.0
2015-Jul-26 15:32N 58°11' E 011°12'0 0.0
2015-Jul-26 14:32N 58°11' E 011°12'0 0.0
2015-Jul-26 13:23N 58°11' E 011°12'0 0.0
2015-Jul-26 12:32N 58°11' E 011°12'0 0.0
2015-Jul-26 11:32N 58°11' E 011°12'0 0.0
2015-Jul-26 10:32N 58°11' E 011°12'0 0.0
2015-Jul-26 09:32N 58°11' E 011°12'4 3.7
2015-Jul-26 08:33N 58°10' E 011°05'1212.2
2015-Jul-26 07:33N 58°06' E 010°43'1212.3
2015-Jul-26 06:33N 58°02' E 010°22'1212.3
2015-Jul-26 05:33N 57°56' E 010°01'1312.8
2015-Jul-26 04:33N 57°51' E 009°39'1312.6
2015-Jul-26 03:32N 57°45' E 009°18'1212.4
2015-Jul-26 02:33N 57°41' E 008°56'1212.2
2015-Jul-26 01:32N 57°34' E 008°37'1211.8
2015-Jul-26 00:32N 57°27' E 008°20'1111.5
2015-Jul-25 23:33N 57°19' E 008°04'1211.6
2015-Jul-25 22:32N 57°12' E 007°47'1111.1
2015-Jul-25 21:32N 57°03' E 007°34'1110.9
2015-Jul-25 20:32N 56°54' E 007°23'17310.7
2015-Jul-25 04:16N 54°22' E 004°54'1211.6
2015-Jul-25 03:12N 54°11' E 004°44'812.3
2015-Jul-25 02:31N 54°03' E 004°40'6612.4
2015-Jul-24 21:10N 53°11' E 003°31'1213.6
2015-Jul-24 20:19N 53°00' E 003°24'1013.7
2015-Jul-24 19:33N 52°51' E 003°17'1413.7
2015-Jul-24 18:33N 52°39' E 003°06'1313.5
2015-Jul-24 17:33N 52°27' E 002°56'1313.0
2015-Jul-24 16:33N 52°15' E 002°46'1312.1
2015-Jul-24 15:32N 52°03' E 002°41'1212.2
2015-Jul-24 14:33N 51°51' E 002°40'1211.5
2015-Jul-24 13:33N 51°41' E 002°31'1311.9
2015-Jul-24 12:30N 51°32' E 002°18'1011.0
2015-Jul-24 11:33N 51°22' E 002°13'1413.7
2015-Jul-24 10:33N 51°25' E 002°35'2 1.9
2015-Jul-24 09:31N 51°25' E 002°38'0 0.1
2015-Jul-24 08:31N 51°25' E 002°38'0 0.0
2015-Jul-24 07:31N 51°25' E 002°38'0 0.0
2015-Jul-24 06:31N 51°25' E 002°38'0 0.0
2015-Jul-24 05:31N 51°25' E 002°38'0 0.0
2015-Jul-24 04:28N 51°25' E 002°38'0 0.1
2015-Jul-24 03:31N 51°25' E 002°38'0 0.1
2015-Jul-24 02:31N 51°25' E 002°38'0 0.0
2015-Jul-24 01:31N 51°25' E 002°38'0 0.0
2015-Jul-24 00:31N 51°25' E 002°38'0 0.0
2015-Jul-23 23:31N 51°25' E 002°38'0 0.1
2015-Jul-23 22:31N 51°25' E 002°38'0 0.1
2015-Jul-23 21:25N 51°25' E 002°38'0 0.0
2015-Jul-23 20:31N 51°25' E 002°38'0 0.0
2015-Jul-23 19:31N 51°25' E 002°38'0 0.0
2015-Jul-23 18:28N 51°25' E 002°38'0 0.0
2015-Jul-23 17:31N 51°25' E 002°38'0 0.0
2015-Jul-23 16:28N 51°25' E 002°38'0 0.0
2015-Jul-23 15:31N 51°25' E 002°38'0 0.1
2015-Jul-23 14:28N 51°25' E 002°38'0 0.0
2015-Jul-23 13:31N 51°25' E 002°38'0 0.0
2015-Jul-23 12:31N 51°25' E 002°38'0 0.0
2015-Jul-23 11:31N 51°25' E 002°38'0 0.0
2015-Jul-23 10:31N 51°25' E 002°38'0 0.1
2015-Jul-23 09:31N 51°25' E 002°38'0 0.1
2015-Jul-23 08:31N 51°25' E 002°38'0 0.0
2015-Jul-23 07:28N 51°25' E 002°38'  
Track history (hours):
 
Tides and Currents Weather Stations Pressure Air Temp Water Temp Dewpoint Dewpoint Depression Visibility Wind Speed Wind Dir Waves Ship Positions

Autumn

Last reported at 2015-Aug-02 07:24 UTC. Time now 2015-Aug-02 10:25 UTC.
Position N 52°26' W 005°24'.

Length 129 m; draft 6 m.

Type: Tanker. MMSI: 538003323.

Date/timePositionNaut miles runAvg speedWind from/ knotsBaromVisibWave heightAir tempDewpointWater temp
2015-Aug-02 07:24N 52°26' W 005°24'2115.8
2015-Aug-02 06:04N 52°07' W 005°37'9911.1
2015-Aug-01 21:08N 51°22' W 003°13'6 6.4
2015-Aug-01 20:17N 51°27' W 003°10'0 0.0
2015-Jul-31 18:34N 51°27' W 003°09'2 2.0
2015-Jul-31 17:33N 51°26' W 003°09'9111.3
2015-Jul-31 09:33N 50°43' W 005°17'1312.8
2015-Jul-31 08:33N 50°35' W 005°32'164 9.5
2015-Jul-30 15:18N 50°19' W 001°15'1715.9
2015-Jul-30 14:12N 50°22' W 000°48'4015.3
2015-Jul-30 11:34N 50°34' E 000°13'1414.0
2015-Jul-30 10:33N 50°38' E 000°34'1313.2
2015-Jul-30 09:33N 50°45' E 000°51'1413.3
2015-Jul-30 08:31N 50°54' E 001°07'1414.5
2015-Jul-30 07:34N 51°03' E 001°24'1716.6
2015-Jul-30 06:34N 51°13' E 001°45'1615.8
2015-Jul-30 05:34N 51°27' E 001°58'1414.2
2015-Jul-30 04:33N 51°38' E 002°13'27411.9
2015-Jul-29 05:33N 55°39' E 005°55'19612.1
2015-Jul-28 13:25N 57°58' E 010°06'1113.1
2015-Jul-28 12:34N 58°03' E 010°26'1313.1
2015-Jul-28 11:33N 58°09' E 010°48'1312.7
2015-Jul-28 10:34N 58°14' E 011°10'1111.3
2015-Jul-28 09:33N 58°21' E 011°25'0 0.3
2015-Jul-28 08:28N 58°21' E 011°26'0 0.0
2015-Jul-28 07:28N 58°21' E 011°26'0 0.0
2015-Jul-28 06:31N 58°21' E 011°26'0 0.0
2015-Jul-28 05:28N 58°21' E 011°26'0 0.0
2015-Jul-28 04:31N 58°21' E 011°26'0 0.0
2015-Jul-28 03:31N 58°21' E 011°26'0 0.0
2015-Jul-28 02:34N 58°21' E 011°26'0 0.0
2015-Jul-28 01:25N 58°21' E 011°26'0 0.0
2015-Jul-28 00:31N 58°21' E 011°26'0 0.0
2015-Jul-27 23:34N 58°21' E 011°26'0 0.0
2015-Jul-27 22:31N 58°21' E 011°26'0 0.0
2015-Jul-27 21:34N 58°21' E 011°26'0 0.0
2015-Jul-27 20:34N 58°21' E 011°26'0 0.0
2015-Jul-27 19:31N 58°21' E 011°26'0 0.0
2015-Jul-27 18:31N 58°21' E 011°26'0 0.0
2015-Jul-27 17:34N 58°21' E 011°26'0 0.0
2015-Jul-27 16:34N 58°21' E 011°26'0 0.0
2015-Jul-27 15:31N 58°21' E 011°26'0 0.0
2015-Jul-27 14:25N 58°21' E 011°26'0 0.0
2015-Jul-27 13:25N 58°21' E 011°26'0 0.0
2015-Jul-27 12:31N 58°21' E 011°26'0 0.0
2015-Jul-27 11:34N 58°21' E 011°26'1 0.6
2015-Jul-27 10:34N 58°21' E 011°25'5 4.8
2015-Jul-27 09:34N 58°18' E 011°19'7 6.8
2015-Jul-27 08:34N 58°12' E 011°13'1 0.6
2015-Jul-27 07:32N 58°11' E 011°13'0 0.0
2015-Jul-27 06:32N 58°11' E 011°13'0 0.0
2015-Jul-27 05:32N 58°11' E 011°13'0 0.0
2015-Jul-27 04:32N 58°11' E 011°13'0 0.0
2015-Jul-27 03:29N 58°11' E 011°13'0 0.0
2015-Jul-27 02:32N 58°11' E 011°13'0 0.1
2015-Jul-27 01:23N 58°11' E 011°13'0 0.1
2015-Jul-27 00:32N 58°11' E 011°13'0 0.2
2015-Jul-26 23:29N 58°11' E 011°12'0 0.0
2015-Jul-26 22:32N 58°11' E 011°12'0 0.0
2015-Jul-26 21:32N 58°11' E 011°12'0 0.0
2015-Jul-26 20:29N 58°11' E 011°12'0 0.0
2015-Jul-26 19:32N 58°11' E 011°12'0 0.1
2015-Jul-26 18:32N 58°11' E 011°12'0 0.1
2015-Jul-26 17:32N 58°11' E 011°12'0 0.0
2015-Jul-26 16:32N 58°11' E 011°12'0 0.0
2015-Jul-26 15:32N 58°11' E 011°12'0 0.0
2015-Jul-26 14:32N 58°11' E 011°12'0 0.0
2015-Jul-26 13:23N 58°11' E 011°12'0 0.0
2015-Jul-26 12:32N 58°11' E 011°12'0 0.0
2015-Jul-26 11:32N 58°11' E 011°12'0 0.0
2015-Jul-26 10:32N 58°11' E 011°12'0 0.0
2015-Jul-26 09:32N 58°11' E 011°12'4 3.7
2015-Jul-26 08:33N 58°10' E 011°05'1212.2
2015-Jul-26 07:33N 58°06' E 010°43'1212.3
2015-Jul-26 06:33N 58°02' E 010°22'1212.3
2015-Jul-26 05:33N 57°56' E 010°01'1312.8
2015-Jul-26 04:33N 57°51' E 009°39'1312.6
2015-Jul-26 03:32N 57°45' E 009°18'1212.4
2015-Jul-26 02:33N 57°41' E 008°56'1212.2
2015-Jul-26 01:32N 57°34' E 008°37'1211.8
2015-Jul-26 00:32N 57°27' E 008°20'1111.5
2015-Jul-25 23:33N 57°19' E 008°04'1211.6
2015-Jul-25 22:32N 57°12' E 007°47'1111.1
2015-Jul-25 21:32N 57°03' E 007°34'1110.9
2015-Jul-25 20:32N 56°54' E 007°23'17310.7
2015-Jul-25 04:16N 54°22' E 004°54'1211.6
2015-Jul-25 03:12N 54°11' E 004°44'812.3
2015-Jul-25 02:31N 54°03' E 004°40'6612.4
2015-Jul-24 21:10N 53°11' E 003°31'1213.6
2015-Jul-24 20:19N 53°00' E 003°24'1013.7
2015-Jul-24 19:33N 52°51' E 003°17'1413.7
2015-Jul-24 18:33N 52°39' E 003°06'1313.5
2015-Jul-24 17:33N 52°27' E 002°56'1313.0
2015-Jul-24 16:33N 52°15' E 002°46'1312.1
2015-Jul-24 15:32N 52°03' E 002°41'1212.2
2015-Jul-24 14:33N 51°51' E 002°40'1211.5
2015-Jul-24 13:33N 51°41' E 002°31'1311.9
2015-Jul-24 12:30N 51°32' E 002°18'1011.0
2015-Jul-24 11:33N 51°22' E 002°13'1413.7
2015-Jul-24 10:33N 51°25' E 002°35'2 1.9
2015-Jul-24 09:31N 51°25' E 002°38'0 0.1
2015-Jul-24 08:31N 51°25' E 002°38'0 0.0
2015-Jul-24 07:31N 51°25' E 002°38'0 0.0
2015-Jul-24 06:31N 51°25' E 002°38'0 0.0
2015-Jul-24 05:31N 51°25' E 002°38'0 0.0
2015-Jul-24 04:28N 51°25' E 002°38'0 0.1
2015-Jul-24 03:31N 51°25' E 002°38'0 0.1
2015-Jul-24 02:31N 51°25' E 002°38'0 0.0
2015-Jul-24 01:31N 51°25' E 002°38'0 0.0
2015-Jul-24 00:31N 51°25' E 002°38'0 0.0
2015-Jul-23 23:31N 51°25' E 002°38'0 0.1
2015-Jul-23 22:31N 51°25' E 002°38'0 0.1
2015-Jul-23 21:25N 51°25' E 002°38'0 0.0
2015-Jul-23 20:31N 51°25' E 002°38'0 0.0
2015-Jul-23 19:31N 51°25' E 002°38'0 0.0
2015-Jul-23 18:28N 51°25' E 002°38'0 0.0
2015-Jul-23 17:31N 51°25' E 002°38'0 0.0
2015-Jul-23 16:28N 51°25' E 002°38'0 0.0
2015-Jul-23 15:31N 51°25' E 002°38'0 0.1
2015-Jul-23 14:28N 51°25' E 002°38'0 0.0
2015-Jul-23 13:31N 51°25' E 002°38'0 0.0
2015-Jul-23 12:31N 51°25' E 002°38'0 0.0
2015-Jul-23 11:31N 51°25' E 002°38'0 0.0
2015-Jul-23 10:31N 51°25' E 002°38'0 0.1
2015-Jul-23 09:31N 51°25' E 002°38'0 0.1
2015-Jul-23 08:31N 51°25' E 002°38'0 0.0
2015-Jul-23 07:28N 51°25' E 002°38'  

Dump ship's entire track history